• Join FlightAware (Why Join?)
  • Login
  • US Flag 
11:57PM EDT


 

Airport Tracker/Info


-or-


 

Live Flight TrackerFlight Track Log ✈ C-FPYX ✈ 01-Jul-2013 ✈ KSKY - CYKZ

Flight Track Log - Related Links

Times and Time Zones

All times are in EDT time to prevent confusion due to time zone crossing. See the C-FPYX flight status page for this flight to view local times or setup timezone preferences in your user account.

Time Position Orientation Groundspeed Altitude Reporting Facility
EDT Latitude Longitude Course Direction KTS MPH feet Rate Location/Type
11:38AM 41.4331 -82.6325 38° Northeast 66 76 1,200  Level Cleveland Center
11:40AM 41.4583 -82.6058 38° Northeast 96 110 2,100 600 Climbing Cleveland Center
11:41AM 41.4756 -82.5869 39° Northeast 82 94 2,700 540 Climbing Cleveland Center
11:42AM 41.4925 -82.5681 40° Northeast 91 105 3,200 480 Climbing Cleveland Center
11:43AM 41.5158 -82.5464 35° Northeast 100 115 3,700 480 Climbing Cleveland Center
11:44AM 41.5431 -82.5281 27° Northeast 97 112 4,300 420 Climbing Cleveland Center
11:45AM 41.5667 -82.5036 38° Northeast 97 112 4,700 420 Climbing Cleveland Center
11:46AM 41.5897 -82.4822 35° Northeast 102 117 5,200 480 Climbing Cleveland Center
11:47AM 41.6194 -82.4608 28° Northeast 102 117 5,700 420 Climbing Cleveland Center
11:48AM 41.6342 -82.4444 40° Northeast 104 120 6,100 420 Climbing Cleveland Center
11:49AM 41.6575 -82.4231 34° Northeast 102 117 6,500 420 Climbing Cleveland Center
11:49AM 41.6764 -82.4069 32° Northeast 104 120 6,900 240 Climbing Cleveland Center
11:51AM 41.7103 -82.3744 36° Northeast 119 137 7,100 60 Climbing Cleveland Center
11:52AM 41.7400 -82.3503 31° Northeast 119 137 7,100  Level Cleveland Center
11:54AM 41.8014 -82.2933 35° Northeast 124 143 7,100  Level Cleveland Center
11:55AM 41.8308 -82.2664 34° Northeast 124 143 7,100  Level Cleveland Center
11:56AM 41.8625 -82.2364 35° Northeast 124 143 7,100  Level Cleveland Center
11:57AM 41.8922 -82.2067 37° Northeast 124 143 7,100  Level Cleveland Center
11:59AM 41.9575 -82.1525 32° Northeast 124 143 7,200  Climbing Cleveland Center
12:00PM 41.9892 -82.1225 35° Northeast 124 143 7,100 -60 Descending Cleveland Center
12:01PM 42.0167 -82.0981 33° Northeast 124 143 7,100  Level Cleveland Center
12:02PM 42.0461 -82.0706 35° Northeast 124 143 7,100  Level Cleveland Center
12:03PM 42.0758 -82.0433 34° Northeast 124 143 7,100  Level Cleveland Center
12:04PM 42.1011 -82.0189 36° Northeast 124 143 7,100  Level Cleveland Center
12:05PM 42.1347 -81.9886 34° Northeast 124 143 7,100  Level Cleveland Center
12:07PM 42.1939 -81.9339 34° Northeast 124 143 7,100  Level Cleveland Center
12:08PM 42.2233 -81.9067 34° Northeast 124 143 7,100  Level Cleveland Center
12:09PM 42.2486 -81.8819 36° Northeast 124 143 7,100  Level Cleveland Center
12:10PM 42.2781 -81.8572 32° Northeast 124 143 7,100  Level Cleveland Center
12:11PM 42.3053 -81.8353 31° Northeast 124 143 7,100  Level Cleveland Center
12:12PM 42.3350 -81.8078 34° Northeast 124 143 7,200  Climbing Cleveland Center
12:13PM 42.3622 -81.7831 34° Northeast 119 137 7,100 -60 Descending Cleveland Center
12:14PM 42.3917 -81.7528 37° Northeast 126 145 7,100  Level Cleveland Center
12:16PM 42.4506 -81.7003 33° Northeast 121 139 7,100  Level Cleveland Center
12:17PM 42.4781 -81.6725 37° Northeast 121 139 7,200  Climbing Cleveland Center
12:18PM 42.5053 -81.6506 31° Northeast 121 139 7,200 -60 Level Cleveland Center
12:19PM 42.5369 -81.6200 35° Northeast 127 146 7,100  Descending Cleveland Center
12:20PM 42.5642 -81.5922 37° Northeast 122 140 7,200  Climbing Cleveland Center
12:21PM 42.5936 -81.5675 32° Northeast 122 140 7,200  Level Cleveland Center
12:22PM 42.6231 -81.5397 35° Northeast 122 140 7,200  Level Cleveland Center
12:23PM 42.6522 -81.5119 35° Northeast 122 140 7,200  Level Cleveland Center
12:24PM 42.6775 -81.4869 36° Northeast 122 140 7,200  Level Cleveland Center
12:25PM 42.7069 -81.4619 32° Northeast 122 140 7,200  Level Cleveland Center
12:26PM 42.7406 -81.4342 31° Northeast 132 152 7,200  Level Cleveland Center
12:27PM 42.7658 -81.4061 39° Northeast 127 146 7,200  Level Cleveland Center
12:29PM 42.8000 -81.3333 57° Northeast 130 150 7,200  Level Toronto Center
12:30PM 42.8333 -81.3167 20° North 130 150 7,200  Level Toronto Center
12:31PM 42.8667 -81.3000 20° North 130 150 7,200  Level Toronto Center
12:32PM 42.9000 -81.2500 48° Northeast 130 150 7,200  Level Toronto Center
12:34PM 42.9500 -81.1833 44° Northeast 130 150 7,200  Level Toronto Center
12:35PM 42.9833 -81.1667 20° North 130 150 7,200  Level Toronto Center
12:37PM 43.0333 -81.1000 44° Northeast 130 150 7,200 -180 Level Toronto Center
12:38PM 43.0667 -81.0667 36° Northeast 130 150 6,800 -420 Descending Toronto Center
12:39PM 43.0833 -81.0333 56° Northeast 140 161 6,400 -480 Descending Toronto Center
12:40PM 43.1167 -81.0000 36° Northeast 140 161 5,900 -480 Descending Toronto Center
12:42PM 43.1833 -80.9333 36° Northeast 130 150 5,100 -300 Descending Toronto Center
12:43PM 43.2000 -80.8833 65° Northeast 120 138 5,100  Level Toronto Center
12:44PM 43.2167 -80.8667 36° Northeast 110 127 5,100  Level Toronto Center
12:45PM 43.2500 -80.8500 20° North 110 127 5,100  Level Toronto Center
12:46PM 43.2667 -80.8167 56° Northeast 110 127 5,100  Level Toronto Center
12:47PM 43.3167 -80.8000 14° North 110 127 5,100  Level Toronto Center
12:48PM 43.3333 -80.7833 36° Northeast 110 127 5,100  Level Toronto Center
12:49PM 43.3500 -80.7333 65° Northeast 110 127 5,100  Level Toronto Center
12:50PM 43.3833 -80.7167 20° North 110 127 5,100  Level Toronto Center
12:51PM 43.4000 -80.6833 55° Northeast 110 127 5,100  Level Toronto Center
12:53PM 43.4500 -80.6167 44° Northeast 120 138 5,100  Level Toronto Center
12:54PM 43.4833 -80.6000 20° North 120 138 5,100  Level Toronto Center
12:55PM 43.5000 -80.5833 36° Northeast 120 138 5,100  Level Toronto Center
12:56PM 43.5333 -80.5333 47° Northeast 120 138 5,100  Level Toronto Center
12:57PM 43.5500 -80.5000 55° Northeast 120 138 5,100  Level Toronto Center
12:58PM 43.5833 -80.4833 20° North 120 138 5,100  Level Toronto Center
12:59PM 43.6000 -80.4667 36° Northeast 120 138 5,100  Level Toronto Center
01:00PM 43.6333 -80.4167 47° Northeast 120 138 5,100  Level Toronto Center
01:01PM 43.6500 -80.4000 36° Northeast 120 138 5,100 -120 Level Toronto Center
01:02PM 43.6833 -80.3500 47° Northeast 120 138 4,900 -360 Descending Toronto Center
01:03PM 43.7000 -80.3167 55° Northeast 130 150 4,400 -540 Descending Toronto Center
01:04PM 43.7167 -80.2833 55° Northeast 130 150 3,900 -540 Descending Toronto Center
01:05PM 43.7333 -80.2333 65° Northeast 130 150 3,400 -360 Descending Toronto Center
01:06PM 43.7500 -80.1833 65° Northeast 130 150 3,200 -120 Descending Toronto Center
01:07PM 43.7667 -80.1333 65° Northeast 120 138 3,200  Level Toronto Center
01:08PM 43.7833 -80.1000 55° Northeast 120 138 3,200  Level Toronto Center
01:09PM 43.7833 -80.0667 90° East 110 127 3,200 -60 Level Toronto Center
01:10PM 43.8000 -80.0333 55° Northeast 120 138 3,100  Descending Toronto Center
01:12PM 43.8333 -79.9333 65° Northeast 120 138 3,200  Climbing Toronto Center
01:14PM 43.8667 -79.8667 55° Northeast 120 138 3,200  Level Toronto Center
01:16PM 43.9032 -79.7393 68° East  Level FlightAware Approximate
01:16PM 43.9000 -79.8000 68° East 120 138 3,200  Level Toronto Center
01:17PM 43.9167 -79.7500 65° Northeast 120 138 3,200  Level Toronto Center
01:18PM 43.9333 -79.7000 65° Northeast 120 138 3,200  Level Toronto Center
01:19PM 43.9333 -79.6500 90° East 120 138 3,200  Level Toronto Center
01:20PM 43.9333 -79.6167 90° East 120 138 3,200  Level Toronto Center
01:21PM 43.9333 -79.5667 90° East 120 138 3,200 -300 Level Toronto Center
01:22PM 43.9167 -79.5167 115° Southeast 130 150 2,700 -420 Descending Toronto Center
01:23PM 43.9000 -79.4667 115° Southeast 150 173 2,400 -240 Descending Toronto Center
01:24PM 43.8833 -79.4167 115° Southeast 140 161 2,300 -420 Descending Toronto Center
01:26PM 43.8333 -79.3500 136° Southeast 100 115 1,200 -600 Descending Toronto Center